Capitol Logistics 1868

Operating for CJT



CYYC
Calgary International Airport
Calgary, CA
CYVR
Vancouver International Airport
Vancouver, CA

Activity Log

Date Flight Route Aircraft Duration
12/21/2021 CPX1868 BOTAG Q894 BOOTH CANUC5 B744 1h 31m
12/18/2021 CPX1868 BOTAG Q894 BOOTH CANUC5 B763 1h 25m
12/03/2021 CPX1868 BOTAG Q894 BOOTH CANUC5 B763 1h 29m
12/03/2021 CPX1868 BOTAG BOOTH B744 1h 48m
11/26/2021 CPX1868 BOTAG Q894 BOOTH CANUC5 B763 1h 24m
11/26/2021 CPX1868 BOTAG Q894 BOOTH CANUC5 B763 1h 59m
11/25/2021 CPX1868 BOTAG Q894 BOOTH CANUC5 B763 1h 26m
11/24/2021 CPX1868 BOTAG Q894 BOOTH CANUC5 B763 1h 28m
11/24/2021 CPX1868 BOTAG Q894 BOOTH CANUC5 B744 1h 18m
11/23/2021 CPX1868 BOTAG Q894 BOOTH CANUC5 B744 1h 29m
11/22/2021 CPX1868 BOTAG Q894 BOOTH CANUC5 B763 1h 29m
11/22/2021 CPX1868 BOTAG Q894 BOOTH CANUC5 B763 1h 34m

Route Details

Aircraft Information
Group: Equipment Varies
Types: A30F,A31F,B738,B744,B752,B762,B763,MD11
Route Data
Demand: H
Distance: 371nm
Duration: 1h 09m
Recm'd Route: BOTAG Q894 BOOTH CANUC5
Origin Wx: CYYC 272100Z 27010G16KT 240V300 40SM SCT079 OVC170 OVC210 21/M00 A2957 RMK AC3AS5CI1 CI TR VIRGA SW-W SLP014 DENSITY ALT 5500FT
Dest. Wx: CYVR 272100Z 16012G20KT 20SM -SHRA SCT028 BKN073 13/12 A2994 RMK CU4AC3 TCU ASOCTD N SLP141
Notes:

Financial History
Total Freight: 1,714,693lbs
Average Load: 142,891lbs/flt
Fuel Used: 258,584lbs
Avg. Fuel Used: 21,549lbs/flt
Fuel Expense: $98,262
Avg. Fuel Expense: $8,188
Avg. Fuel Cost: $0.38/lbs
Total Gross Income: $4,252,439
Pilot Pay: $2,928
Total Expenses: $551,067
Total Revenue: $3,599,253
Average Revenue: $354,369.88